Time;durP1;ratioP1;P1;durP2;ratioP2;P2;SDS_P1;SDS_P2;PMS_P1;PMS_P2;Temp;Humidity;BMP_temperature;BMP_pressure;BME280_temperature;BME280_humidity;BME280_pressure;Samples;Min_cycle;Max_cycle;Signal;HPM_P1;HPM_P2
2021/04/16 00:00:59;;;;;;;9.03;4.27;;;1.80;99.90;;;;;;4973968;28;20485;-86
2021/04/16 00:03:26;;;;;;;6.80;3.17;;;1.90;99.90;;;;;;4974551;28;20453;-86
2021/04/16 00:05:54;;;;;;;3.10;2.90;;;1.90;99.90;;;;;;4977546;28;20449;-86
2021/04/16 00:08:24;;;;;;;3.73;3.00;;;1.90;99.90;;;;;;4977504;28;20937;-86
2021/04/16 00:10:54;;;;;;;3.60;3.00;;;1.80;99.90;;;;;;4978021;28;20888;-86
2021/04/16 00:13:23;;;;;;;3.00;2.80;;;1.70;99.90;;;;;;4977645;28;20413;-86
2021/04/16 00:15:50;;;;;;;5.50;3.40;;;1.70;99.90;;;;;;4977644;28;20437;-86
2021/04/16 00:18:20;;;;;;;5.87;3.10;;;1.70;99.90;;;;;;4977622;28;20460;-86
2021/04/16 00:20:47;;;;;;;3.50;3.20;;;1.70;99.90;;;;;;4977520;28;20418;-86
2021/04/16 00:23:14;;;;;;;4.80;3.43;;;1.70;99.90;;;;;;4977268;28;20449;-86
2021/04/16 00:25:40;;;;;;;3.00;2.80;;;1.60;99.90;;;;;;4977360;28;20500;-86
2021/04/16 00:28:08;;;;;;;3.60;2.90;;;1.50;99.90;;;;;;4977151;28;20968;-86
2021/04/16 00:30:37;;;;;;;3.00;2.77;;;1.50;99.90;;;;;;4977310;28;20978;-86
2021/04/16 00:33:05;;;;;;;4.60;3.37;;;1.50;99.90;;;;;;4977099;28;20998;-86
2021/04/16 00:35:31;;;;;;;3.90;3.33;;;1.40;99.90;;;;;;4977324;28;20444;-86
2021/04/16 00:37:58;;;;;;;3.43;2.73;;;1.40;99.90;;;;;;4977121;28;20504;-86
2021/04/16 00:40:32;;;;;;;4.00;3.00;;;1.40;99.90;;;;;;4976965;28;20954;-86
2021/04/16 00:43:01;;;;;;;4.37;3.03;;;1.40;99.90;;;;;;4977242;28;20443;-86
2021/04/16 00:45:29;;;;;;;4.83;3.33;;;1.40;99.90;;;;;;4977050;28;20490;-86
2021/04/16 00:47:58;;;;;;;4.17;3.40;;;1.40;99.90;;;;;;4976921;28;20432;-86
2021/04/16 00:50:29;;;;;;;2.70;2.50;;;1.40;99.90;;;;;;4976924;28;20424;-86
2021/04/16 00:52:55;;;;;;;4.60;3.57;;;1.40;99.90;;;;;;4976916;28;20571;-86
2021/04/16 00:55:23;;;;;;;3.73;3.20;;;1.30;99.90;;;;;;4976912;28;20453;-86
2021/04/16 00:57:49;;;;;;;3.00;2.60;;;1.30;99.90;;;;;;4976941;28;20452;-86
2021/04/16 01:00:17;;;;;;;3.03;2.70;;;1.30;99.90;;;;;;4976958;28;20454;-86
2021/04/16 01:02:43;;;;;;;4.00;3.07;;;1.30;99.90;;;;;;4976412;28;20462;-86
2021/04/16 01:05:11;;;;;;;3.37;3.07;;;1.30;99.90;;;;;;4976530;28;20416;-86
2021/04/16 01:07:38;;;;;;;3.27;2.93;;;1.30;99.90;;;;;;4977327;28;20457;-86
2021/04/16 01:10:06;;;;;;;4.40;3.90;;;1.20;99.90;;;;;;4981915;28;20416;-86
2021/04/16 01:12:34;;;;;;;2.80;2.60;;;1.20;99.90;;;;;;4981769;28;20460;-86
2021/04/16 01:15:14;;;;;;;3.97;3.13;;;1.10;99.90;;;;;;4978160;28;20461;-86
2021/04/16 01:17:41;;;;;;;3.87;3.13;;;1.10;99.90;;;;;;4977514;28;20416;-86
2021/04/16 01:20:12;;;;;;;3.37;3.07;;;1.10;99.90;;;;;;4977433;28;20428;-86
2021/04/16 01:22:48;;;;;;;4.47;3.33;;;1.10;99.90;;;;;;4976455;28;20465;-86
2021/04/16 01:25:15;;;;;;;3.93;3.30;;;1.10;99.90;;;;;;4976719;28;20407;-86
2021/04/16 01:27:42;;;;;;;3.87;3.20;;;1.10;99.90;;;;;;4976364;28;20439;-86
2021/04/16 01:30:12;;;;;;;4.50;3.17;;;1.10;99.90;;;;;;4976533;28;20512;-86
2021/04/16 01:32:40;;;;;;;3.30;3.00;;;1.10;99.90;;;;;;4975987;28;20943;-86
2021/04/16 01:35:09;;;;;;;5.83;3.30;;;1.10;99.90;;;;;;4976145;28;20499;-86
2021/04/16 01:37:35;;;;;;;3.47;3.07;;;1.00;99.90;;;;;;4976131;28;20436;-86
2021/04/16 01:40:01;;;;;;;2.40;2.20;;;1.10;99.90;;;;;;4976838;28;20483;-86
2021/04/16 01:42:28;;;;;;;3.07;2.80;;;1.00;99.90;;;;;;4976057;28;20444;-86
2021/04/16 01:44:54;;;;;;;3.37;2.90;;;1.00;99.90;;;;;;4975940;28;20440;-86
2021/04/16 01:47:21;;;;;;;7.37;3.40;;;1.00;99.90;;;;;;4975994;28;20482;-86
2021/04/16 01:49:50;;;;;;;4.10;3.40;;;1.00;99.90;;;;;;4976023;28;20428;-86
2021/04/16 01:52:20;;;;;;;4.80;3.20;;;1.00;99.90;;;;;;4975431;28;20971;-86
2021/04/16 01:54:51;;;;;;;6.60;3.87;;;1.00;99.90;;;;;;4980104;28;20400;-85
2021/04/16 01:57:20;;;;;;;8.27;3.97;;;1.00;99.90;;;;;;4975879;28;20500;-86
2021/04/16 01:59:49;;;;;;;3.93;2.80;;;1.00;99.90;;;;;;4975315;28;20605;-85
2021/04/16 02:02:21;;;;;;;4.43;2.97;;;0.90;99.90;;;;;;4975171;28;20975;-86
2021/04/16 02:04:48;;;;;;;3.30;3.00;;;1.00;99.90;;;;;;4975612;28;20917;-86
2021/04/16 02:07:14;;;;;;;4.93;3.23;;;0.90;99.90;;;;;;4975613;28;20437;-86
2021/04/16 02:09:41;;;;;;;2.83;2.57;;;0.90;99.90;;;;;;4975220;28;20428;-86
2021/04/16 02:12:11;;;;;;;2.97;2.77;;;0.80;99.90;;;;;;4975071;28;20456;-86
2021/04/16 02:14:38;;;;;;;4.40;2.80;;;0.80;99.90;;;;;;4975438;28;20416;-86
2021/04/16 02:17:07;;;;;;;4.50;3.23;;;0.80;99.90;;;;;;4975288;28;20457;-86
2021/04/16 02:19:34;;;;;;;4.30;3.40;;;0.80;99.90;;;;;;4975248;28;20435;-85
2021/04/16 02:22:01;;;;;;;3.10;2.87;;;0.80;99.90;;;;;;4975272;28;20502;-86
2021/04/16 02:24:27;;;;;;;4.20;2.70;;;0.80;99.90;;;;;;4975172;28;20453;-86
2021/04/16 02:26:54;;;;;;;3.70;3.40;;;0.80;99.90;;;;;;4974788;28;20818;-86
2021/04/16 02:29:22;;;;;;;5.53;3.40;;;0.80;99.90;;;;;;4974884;28;20437;-86
2021/04/16 02:31:48;;;;;;;3.70;3.30;;;0.80;99.90;;;;;;4974807;28;20492;-86
2021/04/16 02:34:19;;;;;;;3.20;2.90;;;0.80;99.90;;;;;;4974894;28;20950;-86
2021/04/16 02:36:45;;;;;;;4.13;3.13;;;0.70;99.90;;;;;;4975223;28;20442;-86
2021/04/16 02:39:12;;;;;;;3.80;3.27;;;0.70;99.90;;;;;;4975008;28;20508;-85
2021/04/16 02:41:38;;;;;;;4.20;3.70;;;0.70;99.90;;;;;;4974966;28;20469;-86
2021/04/16 02:44:05;;;;;;;3.60;2.90;;;0.70;99.90;;;;;;4975052;28;20461;-86
2021/04/16 02:46:32;;;;;;;3.43;2.83;;;0.70;99.90;;;;;;4974640;28;20515;-86
2021/04/16 02:48:58;;;;;;;4.03;3.50;;;0.70;99.90;;;;;;4975238;28;20498;-86
2021/04/16 02:51:26;;;;;;;3.97;3.37;;;0.70;99.90;;;;;;4974624;28;20469;-86
2021/04/16 02:53:52;;;;;;;3.73;3.03;;;0.70;99.90;;;;;;4974806;28;20449;-86
2021/04/16 02:56:18;;;;;;;4.13;3.23;;;0.70;99.90;;;;;;4974900;28;20411;-86
2021/04/16 02:58:45;;;;;;;5.47;3.30;;;0.60;99.90;;;;;;4974637;28;20961;-86
2021/04/16 03:01:11;;;;;;;3.83;3.50;;;0.70;99.90;;;;;;4977153;28;20512;-85
2021/04/16 03:03:37;;;;;;;3.37;3.13;;;0.70;99.90;;;;;;4982940;28;20500;-86
2021/04/16 03:06:05;;;;;;;3.67;3.37;;;0.70;99.90;;;;;;4978058;28;20445;-85
2021/04/16 03:08:32;;;;;;;3.50;3.20;;;0.70;99.90;;;;;;4976517;28;20432;-86
2021/04/16 03:10:58;;;;;;;3.50;3.20;;;0.70;99.90;;;;;;4976383;28;20428;-86
2021/04/16 03:13:25;;;;;;;3.93;3.17;;;0.70;99.90;;;;;;4976446;28;20564;-86
2021/04/16 03:15:51;;;;;;;3.80;3.43;;;0.70;99.90;;;;;;4974923;28;20432;-86
2021/04/16 03:18:18;;;;;;;4.20;3.63;;;0.70;99.90;;;;;;4974450;28;20469;-86
2021/04/16 03:20:45;;;;;;;3.90;3.50;;;0.70;99.90;;;;;;4974649;28;20445;-86
2021/04/16 03:23:12;;;;;;;5.10;3.40;;;0.70;99.90;;;;;;4974741;28;20445;-86
2021/04/16 03:25:39;;;;;;;6.07;3.37;;;0.70;99.90;;;;;;4974361;28;20957;-86
2021/04/16 03:28:06;;;;;;;3.40;3.07;;;0.70;99.90;;;;;;4974730;28;20435;-86
2021/04/16 03:30:33;;;;;;;3.93;3.53;;;0.60;99.90;;;;;;4974651;28;20458;-86
2021/04/16 03:33:00;;;;;;;3.97;3.63;;;0.50;99.90;;;;;;4974310;28;20467;-78
2021/04/16 03:35:26;;;;;;;5.53;4.97;;;0.50;99.90;;;;;;4974219;28;20435;-78
2021/04/16 03:37:52;;;;;;;7.67;4.90;;;0.40;99.90;;;;;;4973905;28;20427;-78
2021/04/16 03:40:22;;;;;;;8.40;5.90;;;0.40;99.90;;;;;;4976673;28;20456;-78
2021/04/16 03:42:49;;;;;;;4.73;4.30;;;0.40;99.90;;;;;;4977628;28;20808;-78
2021/04/16 03:45:17;;;;;;;6.10;4.80;;;0.40;99.90;;;;;;4977837;28;20504;-79
2021/04/16 03:47:46;;;;;;;4.83;4.13;;;0.30;99.90;;;;;;4977482;28;20805;-78
2021/04/16 03:50:14;;;;;;;4.90;4.40;;;0.30;99.90;;;;;;4977739;28;20452;-79
2021/04/16 03:52:40;;;;;;;4.50;3.70;;;0.20;99.90;;;;;;4977340;28;20539;-79
2021/04/16 03:55:08;;;;;;;5.17;4.13;;;0.30;99.90;;;;;;4977624;28;20453;-79
2021/04/16 03:57:34;;;;;;;5.10;4.40;;;0.30;99.90;;;;;;4977628;28;20443;-79
2021/04/16 04:00:02;;;;;;;7.03;4.13;;;0.30;99.90;;;;;;4977299;28;20806;-78
2021/04/16 04:02:28;;;;;;;4.50;4.10;;;0.30;99.90;;;;;;4977040;28;20515;-79
2021/04/16 04:04:54;;;;;;;5.83;4.33;;;0.20;99.90;;;;;;4977182;28;20516;-79
2021/04/16 04:07:20;;;;;;;7.23;4.10;;;0.20;99.90;;;;;;4977456;28;20480;-78
2021/04/16 04:09:47;;;;;;;6.37;4.13;;;0.20;99.90;;;;;;4977375;28;20453;-79
2021/04/16 04:12:14;;;;;;;6.90;4.07;;;0.20;99.90;;;;;;4976916;28;21059;-79
2021/04/16 04:14:40;;;;;;;6.40;4.27;;;0.20;99.90;;;;;;4977302;28;20461;-79
2021/04/16 04:17:07;;;;;;;4.03;3.67;;;0.20;99.90;;;;;;4977246;28;20449;-79
2021/04/16 04:19:35;;;;;;;4.43;4.03;;;0.20;99.90;;;;;;4977184;28;20428;-79
2021/04/16 04:22:04;;;;;;;6.40;4.90;;;0.20;99.90;;;;;;4977120;28;20469;-79
2021/04/16 04:24:30;;;;;;;5.43;4.53;;;0.00;99.90;;;;;;4976835;28;20919;-79
2021/04/16 04:26:56;;;;;;;5.47;4.43;;;0.00;99.90;;;;;;4977660;28;20428;-79
2021/04/16 04:29:25;;;;;;;6.20;3.80;;;0.00;99.90;;;;;;4976758;28;20994;-79
2021/04/16 04:31:51;;;;;;;5.20;4.70;;;0.00;99.90;;;;;;4976851;28;20467;-79
2021/04/16 04:34:20;;;;;;;8.07;4.93;;;0.00;99.90;;;;;;4976603;28;20785;-79
2021/04/16 04:36:47;;;;;;;5.90;4.57;;;0.00;99.90;;;;;;4976597;28;20980;-82
2021/04/16 04:39:14;;;;;;;8.43;4.73;;;0.00;99.90;;;;;;4976468;28;20922;-82
2021/04/16 04:41:41;;;;;;;5.90;4.37;;;0.00;99.90;;;;;;4976743;28;20878;-82
2021/04/16 04:44:08;;;;;;;6.43;4.60;;;0.00;99.90;;;;;;4977233;28;20802;-82
2021/04/16 04:46:35;;;;;;;5.10;4.60;;;0.00;99.90;;;;;;4976509;28;20959;-82
2021/04/16 04:49:01;;;;;;;5.57;3.87;;;0.00;99.90;;;;;;4976748;28;20837;-82
2021/04/16 04:51:29;;;;;;;5.63;5.00;;;0.00;99.90;;;;;;4976538;28;20457;-82
2021/04/16 04:53:55;;;;;;;6.73;5.07;;;0.00;99.90;;;;;;4980138;28;20445;-83
2021/04/16 04:56:21;;;;;;;4.87;4.43;;;0.00;99.90;;;;;;4980214;28;20464;-82
2021/04/16 04:58:47;;;;;;;4.27;3.70;;;0.00;99.90;;;;;;4978630;28;20432;-82
2021/04/16 05:01:14;;;;;;;6.33;4.77;;;0.00;99.90;;;;;;4977753;28;20459;-82
2021/04/16 05:03:40;;;;;;;5.67;4.37;;;0.10;99.90;;;;;;4977275;28;20477;-83
2021/04/16 05:06:06;;;;;;;6.10;4.90;;;0.10;99.90;;;;;;4976888;28;20453;-82
2021/04/16 05:08:33;;;;;;;4.93;4.20;;;0.10;99.90;;;;;;4976815;28;20439;-82
2021/04/16 05:11:00;;;;;;;6.73;4.70;;;0.20;99.90;;;;;;4976474;28;20439;-82
2021/04/16 05:13:27;;;;;;;4.70;4.30;;;0.20;99.90;;;;;;4976619;28;20460;-82
2021/04/16 05:15:53;;;;;;;5.70;4.07;;;0.30;99.90;;;;;;4976324;28;20453;-82
2021/04/16 05:18:20;;;;;;;9.07;4.43;;;0.30;99.90;;;;;;4976415;28;20424;-82
2021/04/16 05:20:46;;;;;;;5.03;4.20;;;0.40;99.90;;;;;;4976344;28;20424;-82
2021/04/16 05:23:13;;;;;;;6.67;4.10;;;0.40;99.90;;;;;;4976023;28;20908;-82
2021/04/16 05:25:40;;;;;;;7.80;4.67;;;0.50;99.90;;;;;;4976022;28;20858;-82
2021/04/16 05:28:07;;;;;;;5.53;4.53;;;0.50;99.90;;;;;;4975735;28;20492;-80
2021/04/16 05:30:34;;;;;;;6.63;4.90;;;0.60;99.90;;;;;;4975978;28;20437;-81
2021/04/16 05:33:00;;;;;;;9.40;6.00;;;0.60;99.90;;;;;;4975550;28;20460;-80
2021/04/16 05:35:26;;;;;;;6.07;4.80;;;0.60;99.90;;;;;;4975861;28;20416;-80
2021/04/16 05:37:56;;;;;;;5.03;4.40;;;0.70;99.90;;;;;;4975790;28;20423;-80
2021/04/16 05:40:22;;;;;;;8.70;4.73;;;0.70;99.90;;;;;;4975737;28;20461;-80
2021/04/16 05:42:50;;;;;;;5.50;4.00;;;0.80;99.90;;;;;;4975416;28;20478;-80
2021/04/16 05:45:17;;;;;;;6.17;4.23;;;0.90;99.90;;;;;;4975640;28;20428;-80
2021/04/16 05:47:43;;;;;;;4.77;4.20;;;1.10;99.90;;;;;;4976062;28;20434;-79
2021/04/16 05:50:11;;;;;;;5.10;4.30;;;1.20;99.90;;;;;;4980262;28;20420;-79
2021/04/16 05:52:37;;;;;;;5.83;5.20;;;1.40;99.90;;;;;;4975125;28;20559;-79
2021/04/16 05:55:05;;;;;;;5.73;4.50;;;1.70;99.90;;;;;;4975491;28;20454;-80
2021/04/16 05:57:31;;;;;;;6.10;4.70;;;1.80;99.90;;;;;;4975136;28;20431;-79
2021/04/16 05:59:58;;;;;;;16.83;4.23;;;2.10;99.90;;;;;;4975352;28;20424;-79
2021/04/16 06:02:27;;;;;;;5.67;3.90;;;2.30;99.90;;;;;;4974237;28;20485;-80
2021/04/16 06:04:54;;;;;;;5.27;4.77;;;2.60;99.90;;;;;;4975303;28;20456;-80
2021/04/16 06:07:21;;;;;;;5.00;4.50;;;2.80;99.90;;;;;;4975265;28;20454;-80
2021/04/16 06:09:47;;;;;;;7.20;5.00;;;2.90;99.90;;;;;;4974923;28;20442;-80
2021/04/16 06:12:14;;;;;;;7.10;4.30;;;3.00;99.90;;;;;;4975006;28;20588;-80
2021/04/16 06:14:42;;;;;;;7.53;5.50;;;3.10;99.90;;;;;;4974789;28;20941;-80
2021/04/16 06:17:09;;;;;;;6.70;4.73;;;3.10;99.90;;;;;;4975038;28;20449;-79
2021/04/16 06:19:36;;;;;;;5.43;4.93;;;3.20;99.90;;;;;;4974745;28;20957;-80
